createdAt,value
2022-10-20T00:00:01.214Z,16
2022-10-20T00:01:04.285Z,15.9
2022-10-20T00:02:01.437Z,16.4
2022-10-20T00:03:01.222Z,16
2022-10-20T00:04:01.147Z,16.3
2022-10-20T00:05:01.183Z,16.6
2022-10-20T00:06:06.405Z,16.2
2022-10-20T00:07:01.059Z,15.9
2022-10-20T00:08:01.076Z,16.2
2022-10-20T00:09:01.187Z,16.3
2022-10-20T00:10:01.917Z,16.6
2022-10-20T00:11:10.554Z,16.8
2022-10-20T00:12:01.480Z,17.1
2022-10-20T00:13:01.260Z,17.1
2022-10-20T00:14:01.112Z,17
2022-10-20T00:15:01.105Z,16.7
2022-10-20T00:16:13.488Z,16.6
2022-10-20T00:17:01.124Z,16.7
2022-10-20T00:18:01.139Z,16.2
2022-10-20T00:19:01.135Z,16.4
2022-10-20T00:20:01.248Z,16.2
2022-10-20T00:21:15.750Z,16.3
2022-10-20T00:22:01.393Z,16.4
2022-10-20T00:23:01.366Z,16.4
2022-10-20T00:24:01.385Z,16.3
2022-10-20T00:25:02.735Z,16.6
2022-10-20T00:26:01.098Z,16.8
2022-10-20T00:27:01.049Z,16.7
2022-10-20T00:28:01.090Z,16.6
2022-10-20T00:29:01.095Z,16.2
2022-10-20T00:30:01.104Z,16.3
2022-10-20T00:31:01.117Z,16.4
2022-10-20T00:32:01.226Z,16.2
2022-10-20T00:33:01.133Z,16.4
2022-10-20T00:34:01.053Z,16.6
2022-10-20T00:35:01.036Z,16.9
2022-10-20T00:36:01.145Z,17
2022-10-20T00:37:01.148Z,17.2
2022-10-20T00:38:01.454Z,17.4
2022-10-20T00:39:01.905Z,17.7
2022-10-20T00:40:01.106Z,17.6
2022-10-20T00:41:01.210Z,17.4
2022-10-20T00:42:01.905Z,17.3
2022-10-20T00:43:01.084Z,17.2
2022-10-20T00:44:01.088Z,17
2022-10-20T00:45:01.398Z,16.8
2022-10-20T00:46:01.488Z,16.7
2022-10-20T00:47:01.134Z,16.3
2022-10-20T00:48:01.136Z,16.2
2022-10-20T00:49:01.125Z,15.9
2022-10-20T00:50:01.120Z,15.3
2022-10-20T00:51:01.135Z,14.8
2022-10-20T00:52:01.246Z,14.2
2022-10-20T00:53:01.138Z,14.4
2022-10-20T00:54:01.140Z,14.2
2022-10-20T00:55:01.047Z,14.3
2022-10-20T00:56:01.259Z,14.2
2022-10-20T00:57:04.122Z,13.9
2022-10-20T00:58:01.075Z,13.5
2022-10-20T00:59:01.053Z,13.3
2022-10-20T01:00:01.485Z,13.5
2022-10-20T01:01:01.091Z,13.7
2022-10-20T01:02:01.139Z,14
2022-10-20T01:03:01.122Z,13.8
2022-10-20T01:04:01.102Z,13.7
2022-10-20T01:05:01.145Z,13.4
2022-10-20T01:06:01.149Z,13.3
2022-10-20T01:07:00.939Z,13.3
2022-10-20T01:08:00.635Z,12.9
2022-10-20T01:09:00.376Z,12.7
2022-10-20T01:10:00.015Z,12.7
2022-10-20T01:10:59.618Z,12.5
2022-10-20T01:12:01.708Z,12.4
2022-10-20T01:13:01.801Z,12.5
2022-10-20T01:14:01.661Z,12.7
2022-10-20T01:15:02.151Z,12.8
2022-10-20T01:16:01.397Z,12.9
2022-10-20T01:17:01.899Z,13.1
2022-10-20T01:18:01.821Z,13.1
2022-10-20T01:19:01.143Z,13.1
2022-10-20T01:20:01.856Z,13.2
2022-10-20T01:21:01.148Z,13.6
2022-10-20T01:22:01.124Z,13.8
2022-10-20T01:23:01.121Z,13.6
2022-10-20T01:24:01.323Z,13.5
2022-10-20T01:25:01.517Z,13.5
2022-10-20T01:26:01.147Z,13.6
2022-10-20T01:27:01.096Z,13.5
2022-10-20T01:28:01.063Z,13.1
2022-10-20T01:29:01.061Z,13
2022-10-20T01:31:01.088Z,12.6
2022-10-20T01:32:01.076Z,12.3
2022-10-20T01:33:01.364Z,11.9
2022-10-20T01:34:01.041Z,12.1
2022-10-20T01:35:01.451Z,12
2022-10-20T01:36:01.116Z,12.4
2022-10-20T01:37:01.132Z,12.4
2022-10-20T01:38:01.143Z,13
2022-10-20T01:39:01.122Z,13.4
2022-10-20T01:40:01.133Z,13.7
2022-10-20T01:41:01.162Z,13.9
2022-10-20T01:42:01.148Z,14.2
2022-10-20T01:43:01.858Z,14.1
2022-10-20T01:44:01.871Z,14.5
2022-10-20T01:45:01.484Z,14.6
2022-10-20T01:46:01.106Z,14.2
2022-10-20T01:47:01.075Z,14.6
2022-10-20T01:48:01.308Z,14.5
2022-10-20T01:49:01.477Z,14.6
2022-10-20T01:50:01.061Z,14.6
2022-10-20T01:51:01.188Z,14.8
2022-10-20T01:52:01.111Z,14.8
2022-10-20T01:53:01.116Z,14.8
2022-10-20T01:54:01.134Z,14.8
2022-10-20T01:55:01.121Z,14.9
2022-10-20T01:56:00.755Z,14.8
2022-10-20T01:57:00.426Z,14.6
2022-10-20T01:58:00.261Z,14.5
2022-10-20T01:59:00.016Z,14.5
2022-10-20T01:59:59.710Z,14.5
2022-10-20T02:01:01.357Z,14.5
2022-10-20T02:02:01.970Z,14.3
2022-10-20T02:03:01.079Z,14.7
2022-10-20T02:04:01.107Z,14.8
2022-10-20T02:05:01.092Z,14.8
2022-10-20T02:06:01.102Z,14.9
2022-10-20T02:07:01.530Z,15.1
2022-10-20T02:08:00.978Z,15.4
2022-10-20T02:09:00.655Z,15.8
2022-10-20T02:10:00.399Z,16
2022-10-20T02:11:00.422Z,16.1
2022-10-20T02:12:01.148Z,16.3
2022-10-20T02:13:01.157Z,16.4
2022-10-20T02:14:01.142Z,16.8
2022-10-20T02:15:01.458Z,16.8
2022-10-20T02:16:01.058Z,16.5
2022-10-20T02:17:01.069Z,16.7
2022-10-20T02:18:01.062Z,16.6
2022-10-20T02:19:01.096Z,16.7
2022-10-20T02:20:01.109Z,16.9
2022-10-20T02:21:01.475Z,16.6
2022-10-20T02:22:00.983Z,16.6
2022-10-20T02:23:01.052Z,16.9
2022-10-20T02:24:00.542Z,17.2
2022-10-20T02:25:00.173Z,17.5
2022-10-20T02:25:59.946Z,17.6
2022-10-20T02:26:59.686Z,17.5
2022-10-20T02:28:01.333Z,17.6
2022-10-20T02:29:01.329Z,17.5
2022-10-20T02:30:01.395Z,17.6
2022-10-20T02:31:01.076Z,17.9
2022-10-20T02:32:01.046Z,18.3
2022-10-20T02:33:01.065Z,18.4
2022-10-20T02:34:01.087Z,18.6
2022-10-20T02:35:05.029Z,18.4
2022-10-20T02:36:01.097Z,18.3
2022-10-20T02:37:01.108Z,18.7
2022-10-20T02:38:01.138Z,19.1
2022-10-20T02:39:01.173Z,19.5
2022-10-20T02:40:01.226Z,19.8
2022-10-20T02:41:02.813Z,20
2022-10-20T02:42:01.510Z,21.5
2022-10-20T02:43:01.123Z,23.2
2022-10-20T02:44:01.149Z,24
2022-10-20T02:45:01.133Z,25.1
2022-10-20T02:46:05.930Z,25.2
2022-10-20T02:47:01.531Z,25.2
2022-10-20T02:48:02.527Z,24.9
2022-10-20T02:49:01.697Z,24.7
2022-10-20T02:50:02.025Z,25.4
2022-10-20T02:51:10.463Z,26.3
2022-10-20T02:52:01.082Z,27.7
2022-10-20T02:53:01.465Z,27.5
2022-10-20T02:54:01.203Z,27.9
2022-10-20T02:55:01.111Z,28
2022-10-20T02:56:13.466Z,27.2
2022-10-20T02:57:01.122Z,27.2
2022-10-20T02:58:01.123Z,27.3
2022-10-20T02:59:01.129Z,27.7
2022-10-20T03:00:01.131Z,28.5
2022-10-20T03:01:16.301Z,28.9
2022-10-20T03:02:01.609Z,29.1
2022-10-20T03:03:01.170Z,28.8
2022-10-20T03:04:01.057Z,28.5
2022-10-20T03:05:01.060Z,28.3
2022-10-20T03:06:01.107Z,27.8
2022-10-20T03:07:01.743Z,27.5
2022-10-20T03:08:01.053Z,27.8
2022-10-20T03:09:01.106Z,27.8
2022-10-20T03:10:01.093Z,28.1
2022-10-20T03:11:01.451Z,28.1
2022-10-20T03:12:01.119Z,28.3
2022-10-20T03:13:01.148Z,28.3
2022-10-20T03:14:00.574Z,28.1
2022-10-20T03:15:00.210Z,28.2
2022-10-20T03:15:59.796Z,28.2
2022-10-20T03:17:01.452Z,28
2022-10-20T03:18:02.861Z,27.5
2022-10-20T03:19:04.587Z,26.9
2022-10-20T03:20:01.857Z,27
2022-10-20T03:21:01.155Z,26.8
2022-10-20T03:22:01.091Z,27
2022-10-20T03:23:01.067Z,27
2022-10-20T03:24:01.389Z,26.9
2022-10-20T03:25:01.050Z,27.5
2022-10-20T03:26:01.097Z,27.7
2022-10-20T03:27:01.107Z,28.2
2022-10-20T03:28:01.101Z,28.2
2022-10-20T03:29:01.047Z,29
2022-10-20T03:30:01.151Z,29.6
2022-10-20T03:31:01.131Z,30
2022-10-20T03:32:01.515Z,29.6
2022-10-20T03:33:01.152Z,29.4
2022-10-20T03:34:00.728Z,29.2
2022-10-20T03:35:00.302Z,28.9
2022-10-20T03:35:59.856Z,28.8
2022-10-20T03:37:01.751Z,29.1
2022-10-20T03:38:01.094Z,29
2022-10-20T03:39:01.089Z,29.4
2022-10-20T03:40:01.074Z,29.6
2022-10-20T03:42:01.094Z,29.4
2022-10-20T03:43:01.161Z,29.3
2022-10-20T03:44:01.103Z,29.5
2022-10-20T03:45:01.107Z,29.7
2022-10-20T03:46:01.138Z,30
2022-10-20T03:47:01.060Z,30
2022-10-20T03:48:01.146Z,29.8
2022-10-20T03:49:01.750Z,30.4
2022-10-20T03:50:01.590Z,30.6
2022-10-20T03:51:01.452Z,31.5
2022-10-20T03:52:01.145Z,31.9
2022-10-20T03:53:01.048Z,31.9
2022-10-20T03:54:01.149Z,31.7
2022-10-20T03:55:01.049Z,32
2022-10-20T03:56:01.089Z,32
2022-10-20T03:57:04.169Z,32.4
2022-10-20T03:58:01.357Z,32.8
2022-10-20T03:59:01.152Z,32.8
2022-10-20T04:00:01.504Z,33.2
2022-10-20T04:01:01.156Z,32.7
2022-10-20T04:02:01.290Z,34.2
2022-10-20T04:03:01.143Z,33.9
2022-10-20T04:04:01.079Z,34.2
2022-10-20T04:05:07.187Z,34.7
2022-10-20T04:06:06.348Z,35.2
2022-10-20T04:07:01.540Z,36.6
2022-10-20T04:08:02.208Z,36.7
2022-10-20T04:09:01.210Z,36.5
2022-10-20T04:10:02.365Z,36.8
2022-10-20T04:11:01.089Z,36.9
2022-10-20T04:12:01.134Z,36.8
2022-10-20T04:13:01.050Z,36.6
2022-10-20T04:14:01.116Z,36.4
2022-10-20T04:15:01.104Z,35.8
2022-10-20T04:16:01.425Z,36.1
2022-10-20T04:17:02.226Z,36.4
2022-10-20T04:18:01.120Z,36.8
2022-10-20T04:19:01.752Z,36.8
2022-10-20T04:20:01.132Z,36.7
2022-10-20T04:21:00.920Z,36.5
2022-10-20T04:22:04.011Z,36.2
2022-10-20T04:23:01.426Z,34.4
2022-10-20T04:24:03.343Z,33.8
2022-10-20T04:25:01.170Z,32.8
2022-10-20T04:26:01.189Z,32.3
2022-10-20T04:27:06.278Z,31.5
2022-10-20T04:28:01.184Z,31.4
2022-10-20T04:29:01.898Z,31.2
2022-10-20T04:30:01.489Z,31.3
2022-10-20T04:31:01.099Z,31.4
2022-10-20T04:32:09.574Z,31.7
2022-10-20T04:33:01.306Z,32.2
2022-10-20T04:34:01.131Z,32.3
2022-10-20T04:35:01.292Z,32.1
2022-10-20T04:36:01.323Z,32
2022-10-20T04:37:12.156Z,31.6
2022-10-20T04:38:01.159Z,30.4
2022-10-20T04:39:01.137Z,28.8
2022-10-20T04:40:01.041Z,27.4
2022-10-20T04:41:03.987Z,26.7
2022-10-20T04:42:15.339Z,26.3
2022-10-20T04:43:01.985Z,26.5
2022-10-20T04:44:02.080Z,26.8
2022-10-20T04:45:01.188Z,27.5
2022-10-20T04:46:03.853Z,28.4
2022-10-20T04:47:01.093Z,28.4
2022-10-20T04:48:01.095Z,28
2022-10-20T04:49:01.118Z,26.9
2022-10-20T04:50:00.939Z,26.1
2022-10-20T04:51:01.119Z,25.8
2022-10-20T04:52:01.418Z,25.1
2022-10-20T04:53:01.164Z,25.4
2022-10-20T04:54:01.207Z,25.5
2022-10-20T04:55:01.152Z,25.1
2022-10-20T04:56:01.158Z,24.5
2022-10-20T04:57:01.062Z,24.5
2022-10-20T04:58:01.100Z,24.4
2022-10-20T04:59:01.757Z,25
2022-10-20T05:00:01.141Z,25.2
2022-10-20T05:01:01.078Z,25
2022-10-20T05:02:01.124Z,25.2
2022-10-20T05:03:01.467Z,25.5
2022-10-20T05:04:01.476Z,26.3
2022-10-20T05:05:01.048Z,26.7
2022-10-20T05:06:01.042Z,27.1
2022-10-20T05:07:01.043Z,27.4
2022-10-20T05:08:01.059Z,27.8
2022-10-20T05:09:01.208Z,28.1
2022-10-20T05:10:01.952Z,28.1
2022-10-20T05:11:02.573Z,28
2022-10-20T05:12:01.622Z,28.7
2022-10-20T05:13:01.578Z,29.2
2022-10-20T05:14:01.853Z,29.5
2022-10-20T05:15:01.161Z,29.5
2022-10-20T05:16:01.078Z,29.6
2022-10-20T05:17:02.421Z,30
2022-10-20T05:18:01.877Z,30.6
2022-10-20T05:19:01.128Z,30.8
2022-10-20T05:20:01.118Z,30.7
2022-10-20T05:21:08.798Z,30.8
2022-10-20T05:22:01.230Z,31
2022-10-20T05:23:01.147Z,31.3
2022-10-20T05:24:01.128Z,31.7
2022-10-20T05:25:24.586Z,31.9
2022-10-20T05:26:01.515Z,33
2022-10-20T05:27:02.081Z,33.9
2022-10-20T05:28:02.161Z,33.9
2022-10-20T05:29:01.158Z,34
2022-10-20T05:30:01.479Z,34.4
2022-10-20T05:31:01.803Z,34.5
2022-10-20T05:32:01.088Z,34.2
2022-10-20T05:33:00.767Z,34.5
2022-10-20T05:34:00.375Z,34.5
2022-10-20T05:34:59.949Z,34.6
2022-10-20T05:35:59.671Z,35.4
2022-10-20T05:37:02.431Z,37.4
2022-10-20T05:38:02.133Z,39.2
2022-10-20T05:39:02.363Z,39.4
2022-10-20T05:40:01.146Z,39.4
2022-10-20T05:41:01.178Z,39.1
2022-10-20T05:42:01.130Z,39.5
2022-10-20T05:43:01.141Z,39.7
2022-10-20T05:44:01.150Z,40
2022-10-20T05:45:01.460Z,39.9
2022-10-20T05:46:01.070Z,40.1
2022-10-20T05:47:01.089Z,40.3
2022-10-20T05:48:01.593Z,40.1
2022-10-20T05:49:01.222Z,40.3
2022-10-20T05:50:01.002Z,40
2022-10-20T05:51:00.700Z,39.8
2022-10-20T05:52:00.614Z,41
2022-10-20T05:53:00.390Z,42
2022-10-20T05:53:59.991Z,42.1
2022-10-20T05:54:59.622Z,42.4
2022-10-20T05:56:01.265Z,42.9
2022-10-20T05:57:01.516Z,43.5
2022-10-20T05:58:02.660Z,45.7
2022-10-20T05:59:01.135Z,46.9
2022-10-20T06:00:01.153Z,48.1
2022-10-20T06:01:01.076Z,47.7
2022-10-20T06:02:01.125Z,48.2
2022-10-20T06:03:05.623Z,50.1
2022-10-20T06:04:01.185Z,52.2
2022-10-20T06:05:02.072Z,54.1
2022-10-20T06:06:02.062Z,55.9
2022-10-20T06:07:02.096Z,59.5
2022-10-20T06:08:07.613Z,63.2
2022-10-20T06:09:01.108Z,64.2
2022-10-20T06:10:01.803Z,64.4
2022-10-20T06:11:01.781Z,64.8
2022-10-20T06:12:02.488Z,66.1
2022-10-20T06:13:10.926Z,66.3
2022-10-20T06:14:01.507Z,66.4
2022-10-20T06:15:01.250Z,66.1
2022-10-20T06:16:02.151Z,66.8
2022-10-20T06:17:01.072Z,68
2022-10-20T06:18:13.312Z,68.9
2022-10-20T06:19:01.815Z,69.5
2022-10-20T06:20:02.505Z,69.6
2022-10-20T06:21:01.487Z,72.2
2022-10-20T06:22:04.073Z,74
2022-10-20T06:23:16.739Z,75.1
2022-10-20T06:24:02.317Z,77.6
2022-10-20T06:25:01.924Z,82.1
2022-10-20T06:26:02.134Z,83.5
2022-10-20T06:27:01.121Z,85.8
2022-10-20T06:28:01.118Z,86
2022-10-20T06:29:04.696Z,86.9
2022-10-20T06:30:01.541Z,88.5
2022-10-20T06:31:02.279Z,89.7
2022-10-20T06:32:01.194Z,90.5
2022-10-20T06:33:01.158Z,90.8
2022-10-20T06:34:00.856Z,91.2
2022-10-20T06:35:00.435Z,91.9
2022-10-20T06:36:00.064Z,92
2022-10-20T06:36:59.732Z,92.2
2022-10-20T06:38:01.853Z,91.7
2022-10-20T06:39:02.029Z,91.7
2022-10-20T06:40:01.856Z,91.5
2022-10-20T06:41:01.470Z,91.8
2022-10-20T06:42:02.125Z,92.1
2022-10-20T06:43:02.134Z,92.6
2022-10-20T06:44:01.832Z,92.8
2022-10-20T06:45:01.177Z,93.6
2022-10-20T06:46:01.130Z,94.8
2022-10-20T06:47:01.147Z,95.1
2022-10-20T06:48:01.141Z,94.9
2022-10-20T06:49:01.172Z,94.8
2022-10-20T06:50:01.078Z,94.5
2022-10-20T06:51:01.078Z,94.2
2022-10-20T06:52:01.113Z,94.2
2022-10-20T06:53:01.079Z,94.3
2022-10-20T06:54:01.475Z,94.4
2022-10-20T06:55:01.375Z,94.3
2022-10-20T06:56:02.770Z,94.7
2022-10-20T06:57:02.150Z,94.6
2022-10-20T06:58:01.105Z,94.7
2022-10-20T06:59:01.137Z,95
2022-10-20T07:00:00.651Z,95.1
2022-10-20T07:01:02.602Z,95.1
2022-10-20T07:02:01.495Z,95.1
2022-10-20T07:03:01.403Z,95.5
2022-10-20T07:04:02.267Z,95.9
2022-10-20T07:05:01.169Z,96
2022-10-20T07:06:01.790Z,96.3
2022-10-20T07:07:01.080Z,96.3
2022-10-20T07:08:01.176Z,96.3
2022-10-20T07:09:01.179Z,96.3
2022-10-20T07:10:02.438Z,96.3
2022-10-20T07:11:02.118Z,96.4
2022-10-20T07:12:01.490Z,96.3
2022-10-20T07:13:01.221Z,96.6
2022-10-20T07:14:00.593Z,96.4
2022-10-20T07:15:00.180Z,96.5
2022-10-20T07:15:59.838Z,97.3
2022-10-20T07:17:01.542Z,97.8
2022-10-20T07:18:01.135Z,98.2
2022-10-20T07:19:01.158Z,98.2
2022-10-20T07:20:01.592Z,98.8
2022-10-20T07:21:02.108Z,99.9
2022-10-20T07:22:01.989Z,99.9
2022-10-20T07:23:01.185Z,99.9
2022-10-20T07:24:01.398Z,99.9
2022-10-20T07:25:01.089Z,99.9
2022-10-20T07:26:01.079Z,99.9
2022-10-20T07:27:01.113Z,99.9
2022-10-20T07:28:01.087Z,99.9
2022-10-20T07:29:01.340Z,99.9
2022-10-20T07:30:01.119Z,99.9
2022-10-20T07:31:01.876Z,99.9
2022-10-20T07:32:02.086Z,99.9
2022-10-20T07:33:02.551Z,99.9
2022-10-20T07:34:13.582Z,99.9
2022-10-20T07:35:01.324Z,99.9
2022-10-20T07:36:01.675Z,99.9
2022-10-20T07:37:01.856Z,99.9
2022-10-20T07:38:01.048Z,99.9
2022-10-20T07:39:01.194Z,99.9
2022-10-20T07:40:01.061Z,99.9
2022-10-20T07:41:01.775Z,99.9
2022-10-20T07:42:01.778Z,99.9
2022-10-20T07:43:01.120Z,99.9
2022-10-20T07:44:01.149Z,99.9
2022-10-20T07:45:01.815Z,99.9
2022-10-20T07:46:01.520Z,99.9
2022-10-20T07:47:00.716Z,99.9
2022-10-20T07:48:00.409Z,99.9
2022-10-20T07:49:23.907Z,99.9
2022-10-20T07:50:01.282Z,99.9
2022-10-20T07:51:01.591Z,99.9
2022-10-20T07:52:01.530Z,99.9
2022-10-20T07:53:01.203Z,99.9
2022-10-20T07:54:03.122Z,99.9
2022-10-20T07:55:17.381Z,99.9
2022-10-20T07:56:01.059Z,99.9
2022-10-20T07:57:01.778Z,99.9
2022-10-20T07:58:02.509Z,99.9
2022-10-20T07:59:06.573Z,99.9
2022-10-20T08:00:01.287Z,99.9
2022-10-20T08:01:04.097Z,99.9
2022-10-20T08:02:01.836Z,99.3
2022-10-20T08:03:01.151Z,99.5
2022-10-20T08:04:09.521Z,99.2
2022-10-20T08:05:01.133Z,99
2022-10-20T08:06:01.141Z,99.4
2022-10-20T08:07:01.285Z,99.9
2022-10-20T08:08:01.532Z,98.3
2022-10-20T08:09:12.701Z,97.7
2022-10-20T08:10:01.088Z,97.7
2022-10-20T08:11:01.356Z,96.6
2022-10-20T08:12:01.089Z,92.6
2022-10-20T08:13:01.090Z,91.1
2022-10-20T08:14:14.425Z,90.7
2022-10-20T08:15:01.132Z,85.8
2022-10-20T08:16:01.511Z,86.2
2022-10-20T08:17:01.372Z,85.1
2022-10-20T08:18:01.102Z,85.2
2022-10-20T08:19:01.698Z,81.7
2022-10-20T08:20:02.224Z,72.3
2022-10-20T08:21:01.329Z,73.8
2022-10-20T08:22:02.573Z,76.5
2022-10-20T08:23:01.312Z,75.3
2022-10-20T08:24:01.398Z,73.6
2022-10-20T08:25:01.534Z,71.5
2022-10-20T08:26:01.154Z,71.7
2022-10-20T08:27:01.053Z,71.9
2022-10-20T08:28:01.071Z,72.2
2022-10-20T08:29:01.088Z,65.7
2022-10-20T08:30:22.359Z,63.7
2022-10-20T08:31:01.511Z,63.5
2022-10-20T08:32:01.263Z,65.9
2022-10-20T08:33:01.107Z,62.9
2022-10-20T08:34:01.435Z,62.2
2022-10-20T08:35:01.121Z,62.1
2022-10-20T08:36:01.128Z,65.2
2022-10-20T08:37:01.124Z,62.2
2022-10-20T08:38:00.560Z,57.3
2022-10-20T08:39:03.564Z,51.6
2022-10-20T08:40:01.755Z,48.3
2022-10-20T08:41:01.162Z,46.8
2022-10-20T08:42:09.561Z,47.1
2022-10-20T08:43:01.057Z,46.5
2022-10-20T08:44:01.147Z,47.8
2022-10-20T08:45:01.075Z,42.3
2022-10-20T08:46:01.269Z,43.9
2022-10-20T08:47:01.081Z,44.1
2022-10-20T08:48:01.158Z,42.6
2022-10-20T08:49:01.102Z,40.3
2022-10-20T08:50:01.483Z,40.1
2022-10-20T08:51:01.543Z,39.1
2022-10-20T08:52:01.188Z,40
2022-10-20T08:53:01.078Z,40.4
2022-10-20T08:54:00.830Z,35
2022-10-20T08:55:00.392Z,34.1
2022-10-20T08:56:00.006Z,34.8
2022-10-20T08:56:59.601Z,34.5
2022-10-20T08:58:01.406Z,35
2022-10-20T08:59:01.200Z,34.9
2022-10-20T09:00:03.912Z,30.9
2022-10-20T09:01:04.144Z,31.1
2022-10-20T09:02:01.214Z,29.9
2022-10-20T09:03:01.230Z,29.6
2022-10-20T09:04:02.316Z,28.4
2022-10-20T09:05:00.843Z,28.2
2022-10-20T09:06:00.481Z,26.6
2022-10-20T09:07:00.021Z,27
2022-10-20T09:07:59.567Z,27.7
2022-10-20T09:09:01.246Z,25.7
2022-10-20T09:10:01.300Z,24.7
2022-10-20T09:11:01.129Z,24.4
2022-10-20T09:12:01.269Z,25.3
2022-10-20T09:13:01.655Z,22.2
2022-10-20T09:14:01.301Z,21.7
2022-10-20T09:15:02.553Z,20.5
2022-10-20T09:16:01.078Z,21
2022-10-20T09:17:01.233Z,19.1
2022-10-20T09:18:01.240Z,17.3
2022-10-20T09:19:01.088Z,16
2022-10-20T09:20:01.101Z,16.7
2022-10-20T09:21:01.093Z,16.8
2022-10-20T09:22:02.114Z,15.9
2022-10-20T09:23:04.197Z,15.2
2022-10-20T09:24:01.320Z,15.3
2022-10-20T09:25:01.160Z,14.2
2022-10-20T09:26:01.219Z,13.4
2022-10-20T09:27:01.139Z,13.5
2022-10-20T09:28:01.140Z,11.8
2022-10-20T09:29:12.452Z,12.4
2022-10-20T09:30:01.279Z,12.1
2022-10-20T09:31:02.971Z,12.2
2022-10-20T09:32:16.643Z,10.5
2022-10-20T09:33:01.603Z,10.3
2022-10-20T09:34:01.233Z,8.5
2022-10-20T09:35:05.258Z,8.5
2022-10-20T09:36:02.204Z,8.1
2022-10-20T09:37:01.432Z,8.9
2022-10-20T09:38:02.636Z,7.7
2022-10-20T09:39:01.143Z,8.5
2022-10-20T09:40:07.928Z,8.1
2022-10-20T09:41:02.621Z,8.5
2022-10-20T09:43:02.041Z,9
2022-10-20T09:44:02.766Z,9.2
2022-10-20T09:45:11.091Z,9.1
2022-10-20T09:46:01.586Z,10.3
2022-10-20T09:47:01.324Z,10.9
2022-10-20T09:48:02.213Z,11.1
2022-10-20T09:49:02.223Z,11.5
2022-10-20T09:50:14.035Z,11.4
2022-10-20T09:51:01.942Z,11.1
2022-10-20T09:52:01.083Z,10.8
2022-10-20T09:53:00.926Z,10.5
2022-10-20T09:54:01.069Z,9.9
2022-10-20T09:55:15.920Z,10.7
2022-10-20T09:56:01.116Z,9.1
2022-10-20T09:57:01.151Z,8.8
2022-10-20T09:58:01.124Z,8.8
2022-10-20T09:59:01.191Z,8.7
2022-10-20T10:00:04.505Z,7.3
2022-10-20T10:01:01.153Z,8
2022-10-20T10:02:01.489Z,7.8
2022-10-20T10:03:01.185Z,7.2
2022-10-20T10:04:01.149Z,7.1
2022-10-20T10:05:01.158Z,7.5
2022-10-20T10:06:01.143Z,8.5
2022-10-20T10:07:01.185Z,6.5
2022-10-20T10:08:01.270Z,6.1
2022-10-20T10:09:01.174Z,6.2
2022-10-20T10:10:03.950Z,6.4
2022-10-20T10:11:01.085Z,5.6
2022-10-20T10:12:01.449Z,5.1
2022-10-20T10:13:01.581Z,4.7
2022-10-20T10:14:01.539Z,5.4
2022-10-20T10:15:01.250Z,5.5
2022-10-20T10:16:01.954Z,6.4
2022-10-20T10:17:01.189Z,5
2022-10-20T10:18:01.152Z,5.6
2022-10-20T10:19:02.009Z,5.1
2022-10-20T10:20:01.060Z,5.6
2022-10-20T10:21:01.460Z,3
2022-10-20T10:22:01.350Z,2.8
2022-10-20T10:23:02.044Z,3.2
2022-10-20T10:24:02.113Z,2.6
2022-10-20T10:25:01.242Z,2.9
2022-10-20T10:26:02.279Z,2.9
2022-10-20T10:27:01.158Z,2.9
2022-10-20T10:28:01.412Z,3
2022-10-20T10:29:01.264Z,3.5
2022-10-20T10:30:01.136Z,3.9
2022-10-20T10:31:02.045Z,3.9
2022-10-20T10:32:01.145Z,3.6
2022-10-20T10:33:01.144Z,2
2022-10-20T10:34:00.753Z,2.2
2022-10-20T10:35:00.350Z,2.4
2022-10-20T10:35:59.929Z,1.7
2022-10-20T10:37:02.371Z,1
2022-10-20T10:38:01.764Z,1.9
2022-10-20T10:39:02.315Z,1
2022-10-20T10:40:01.909Z,1
2022-10-20T10:41:01.143Z,1
2022-10-20T10:42:01.105Z,1
2022-10-20T10:43:01.102Z,1
2022-10-20T10:44:01.120Z,1
2022-10-20T10:45:01.113Z,1
2022-10-20T10:46:01.503Z,1
2022-10-20T10:47:01.245Z,1
2022-10-20T10:48:01.075Z,1
2022-10-20T10:49:01.138Z,1
2022-10-20T10:50:01.147Z,1
2022-10-20T10:51:01.051Z,1
2022-10-20T10:52:01.452Z,1
2022-10-20T10:53:01.094Z,1
2022-10-20T10:54:00.763Z,1
2022-10-20T10:55:00.350Z,1
2022-10-20T10:56:00.205Z,1
2022-10-20T10:56:59.830Z,1
2022-10-20T10:58:01.566Z,1
2022-10-20T10:59:01.161Z,1
2022-10-20T11:00:01.136Z,1
2022-10-20T11:01:01.980Z,1
2022-10-20T11:02:01.191Z,1
2022-10-20T11:03:01.153Z,1
2022-10-20T11:04:01.133Z,1
2022-10-20T11:05:01.149Z,1
2022-10-20T11:06:01.153Z,1
2022-10-20T11:07:01.160Z,1
2022-10-20T11:08:01.061Z,1
2022-10-20T11:09:01.436Z,1
2022-10-20T11:10:01.356Z,1
2022-10-20T11:11:01.875Z,1
2022-10-20T11:12:01.114Z,1
2022-10-20T11:13:01.531Z,1
2022-10-20T11:14:01.101Z,1
2022-10-20T11:15:01.286Z,1
2022-10-20T11:16:11.601Z,1
2022-10-20T11:17:01.278Z,1
2022-10-20T11:18:01.463Z,1
2022-10-20T11:19:01.518Z,1
2022-10-20T11:20:02.142Z,1
2022-10-20T11:21:07.655Z,1
2022-10-20T11:22:01.429Z,1
2022-10-20T11:23:04.119Z,1
2022-10-20T11:24:02.074Z,1.5
2022-10-20T11:25:01.159Z,1
2022-10-20T11:26:09.924Z,1
2022-10-20T11:27:01.134Z,1
2022-10-20T11:28:01.037Z,1
2022-10-20T11:29:01.090Z,1
2022-10-20T11:30:01.548Z,1
2022-10-20T11:31:12.626Z,1
2022-10-20T11:32:02.011Z,1
2022-10-20T11:33:01.160Z,1
2022-10-20T11:34:00.774Z,1
2022-10-20T11:35:00.394Z,1
2022-10-20T11:36:13.452Z,1
2022-10-20T11:37:01.157Z,1
2022-10-20T11:38:01.064Z,1
2022-10-20T11:39:01.193Z,1
2022-10-20T11:40:04.581Z,1
2022-10-20T11:41:15.453Z,1
2022-10-20T11:42:01.472Z,1
2022-10-20T11:43:02.087Z,1
2022-10-20T11:44:01.091Z,1
2022-10-20T11:45:01.096Z,1
2022-10-20T11:46:01.085Z,1
2022-10-20T11:47:01.094Z,1
2022-10-20T11:48:01.037Z,1
2022-10-20T11:49:03.343Z,1
2022-10-20T11:50:01.823Z,1
2022-10-20T11:51:01.186Z,1
2022-10-20T11:52:01.520Z,1
2022-10-20T11:53:01.144Z,1
2022-10-20T11:54:01.155Z,1
2022-10-20T11:55:01.246Z,1
2022-10-20T11:56:01.146Z,1
2022-10-20T11:57:01.074Z,1
2022-10-20T11:58:01.319Z,1
2022-10-20T11:59:03.373Z,1
2022-10-20T12:00:01.108Z,1
2022-10-20T12:01:01.094Z,1
2022-10-20T12:02:01.498Z,1
2022-10-20T12:03:01.216Z,1
2022-10-20T12:04:01.126Z,1
2022-10-20T12:05:01.817Z,1
2022-10-20T12:06:01.057Z,1
2022-10-20T12:07:00.716Z,1
2022-10-20T12:08:24.760Z,1
2022-10-20T12:09:01.373Z,1
2022-10-20T12:10:01.343Z,1
2022-10-20T12:11:01.369Z,1
2022-10-20T12:12:01.047Z,1
2022-10-20T12:13:01.124Z,1
2022-10-20T12:14:01.082Z,1
2022-10-20T12:15:01.276Z,1
2022-10-20T12:16:01.081Z,1
2022-10-20T12:17:01.288Z,1
2022-10-20T12:18:01.479Z,1
2022-10-20T12:19:02.333Z,1
2022-10-20T12:20:01.119Z,1
2022-10-20T12:21:01.112Z,1
2022-10-20T12:22:00.810Z,1
2022-10-20T12:23:00.583Z,1
2022-10-20T12:24:00.354Z,1
2022-10-20T12:25:00.013Z,1
2022-10-20T12:25:59.746Z,1
2022-10-20T12:27:02.465Z,1
2022-10-20T12:28:01.924Z,1
2022-10-20T12:29:01.087Z,1
2022-10-20T12:30:01.470Z,1
2022-10-20T12:31:01.456Z,1
2022-10-20T12:32:01.082Z,1
2022-10-20T12:33:01.117Z,1
2022-10-20T12:34:01.135Z,1
2022-10-20T12:35:01.321Z,1
2022-10-20T12:36:01.097Z,1
2022-10-20T12:38:01.498Z,1
2022-10-20T12:39:01.513Z,1
2022-10-20T12:40:01.402Z,1
2022-10-20T12:41:02.318Z,1
2022-10-20T12:42:01.139Z,1
2022-10-20T12:43:01.194Z,1
2022-10-20T12:44:01.093Z,1
2022-10-20T12:45:02.494Z,1
2022-10-20T12:46:01.740Z,1
2022-10-20T12:47:02.105Z,1
2022-10-20T12:48:02.280Z,1
2022-10-20T12:49:01.098Z,1
2022-10-20T12:50:01.082Z,1
2022-10-20T12:51:01.103Z,1
2022-10-20T12:52:01.114Z,1
2022-10-20T12:53:01.105Z,1
2022-10-20T12:54:01.122Z,1
2022-10-20T12:55:00.815Z,1
2022-10-20T12:56:00.399Z,1
2022-10-20T12:57:02.030Z,1
2022-10-20T12:58:03.123Z,1
2022-10-20T12:59:01.051Z,1
2022-10-20T13:00:01.231Z,1
2022-10-20T13:01:01.128Z,1
2022-10-20T13:02:04.566Z,1
2022-10-20T13:03:01.165Z,1
2022-10-20T13:04:01.095Z,1
2022-10-20T13:05:01.499Z,1
2022-10-20T13:06:01.487Z,1
2022-10-20T13:07:07.754Z,1
2022-10-20T13:08:02.480Z,1
2022-10-20T13:09:01.589Z,1
2022-10-20T13:10:03.544Z,1
2022-10-20T13:11:01.548Z,1
2022-10-20T13:12:10.276Z,1
2022-10-20T13:13:01.779Z,1
2022-10-20T13:14:03.931Z,1
2022-10-20T13:15:01.789Z,1
2022-10-20T13:16:02.232Z,1
2022-10-20T13:17:13.499Z,1
2022-10-20T13:18:01.072Z,1
2022-10-20T13:19:01.082Z,1
2022-10-20T13:20:01.598Z,1
2022-10-20T13:21:01.081Z,1
2022-10-20T13:22:16.250Z,1
2022-10-20T13:23:01.167Z,1
2022-10-20T13:24:01.226Z,1
2022-10-20T13:25:01.815Z,1
2022-10-20T13:26:03.023Z,1
2022-10-20T13:27:01.160Z,1
2022-10-20T13:28:01.547Z,1
2022-10-20T13:29:01.166Z,1
2022-10-20T13:30:01.203Z,1
2022-10-20T13:31:01.148Z,1
2022-10-20T13:32:03.684Z,1
2022-10-20T13:33:18.134Z,1
2022-10-20T13:34:05.791Z,1
2022-10-20T13:35:01.427Z,1
2022-10-20T13:36:01.106Z,1
2022-10-20T13:37:01.084Z,1
2022-10-20T13:38:01.104Z,1
2022-10-20T13:39:01.498Z,1
2022-10-20T13:40:01.118Z,1
2022-10-20T13:42:01.218Z,1
2022-10-20T13:43:01.369Z,1
2022-10-20T13:44:04.236Z,1
2022-10-20T13:45:02.082Z,1
2022-10-20T13:46:01.183Z,1
2022-10-20T13:47:01.146Z,1